Time;durP1;ratioP1;P1;durP2;ratioP2;P2;SDS_P1;SDS_P2;PMS_P1;PMS_P2;Temp;Humidity;BMP_temperature;BMP_pressure;BME280_temperature;BME280_humidity;BME280_pressure;Samples;Min_cycle;Max_cycle;Signal;HPM_P1;HPM_P2
2024/04/07 00:00:02;;;;;;;9.60;2.05;;;21.70;88.60;;;;;;5019011;28;20026;-76
2024/04/07 00:02:33;;;;;;;8.05;2.10;;;21.70;88.80;;;;;;5013359;28;20040;-76
2024/04/07 00:05:01;;;;;;;9.77;2.35;;;21.70;88.90;;;;;;5031979;28;20026;-76
2024/04/07 00:07:27;;;;;;;5.50;2.05;;;21.70;88.70;;;;;;5040343;28;20055;-76
2024/04/07 00:09:53;;;;;;;19.02;2.25;;;21.70;88.70;;;;;;5024055;28;20497;-76
2024/04/07 00:12:18;;;;;;;11.35;2.08;;;21.60;88.70;;;;;;5031512;28;20057;-76
2024/04/07 00:14:44;;;;;;;6.75;2.83;;;21.60;89.00;;;;;;5028719;28;20135;-76
2024/04/07 00:17:10;;;;;;;13.18;2.22;;;21.50;89.20;;;;;;5025870;28;20036;-76
2024/04/07 00:19:36;;;;;;;10.55;2.30;;;21.50;89.00;;;;;;5022963;28;20472;-76
2024/04/07 00:22:01;;;;;;;9.35;2.17;;;21.40;88.90;;;;;;5020783;28;20485;-76
2024/04/07 00:24:27;;;;;;;10.43;2.22;;;21.40;88.60;;;;;;5020105;28;20481;-76
2024/04/07 00:26:52;;;;;;;5.45;2.05;;;21.40;89.00;;;;;;5021873;28;20026;-76
2024/04/07 00:29:18;;;;;;;17.95;2.30;;;21.40;89.00;;;;;;5018318;28;20087;-76
2024/04/07 00:31:44;;;;;;;10.95;2.30;;;21.40;89.10;;;;;;5025370;28;20037;-76
2024/04/07 00:34:09;;;;;;;13.38;2.53;;;21.40;89.10;;;;;;5019636;28;20038;-76
2024/04/07 00:36:35;;;;;;;8.43;2.17;;;21.40;89.20;;;;;;5023306;28;20033;-76
2024/04/07 00:39:01;;;;;;;5.95;2.15;;;21.30;89.40;;;;;;5016406;28;20030;-76
2024/04/07 00:41:27;;;;;;;5.65;2.05;;;21.30;89.30;;;;;;5046505;28;20032;-76
2024/04/07 00:43:52;;;;;;;9.57;2.05;;;21.30;89.30;;;;;;5029101;28;20048;-76
2024/04/07 00:46:18;;;;;;;10.70;2.22;;;21.30;89.50;;;;;;5015599;28;20037;-76
2024/04/07 00:48:44;;;;;;;6.57;2.00;;;21.20;89.40;;;;;;5026072;28;20039;-76
2024/04/07 00:51:10;;;;;;;3.90;2.13;;;21.10;89.20;;;;;;5008681;28;20060;-76
2024/04/07 00:53:36;;;;;;;6.25;2.03;;;21.10;89.10;;;;;;5019306;28;20045;-76
2024/04/07 00:56:02;;;;;;;7.78;2.10;;;21.10;89.30;;;;;;5020420;28;20033;-76
2024/04/07 00:58:29;;;;;;;5.68;1.65;;;21.10;89.40;;;;;;5035362;28;20040;-76
2024/04/07 01:00:54;;;;;;;10.35;2.30;;;21.00;90.20;;;;;;5014316;28;20029;-76
2024/04/07 01:03:20;;;;;;;10.15;2.35;;;21.00;89.80;;;;;;5009120;28;20480;-76
2024/04/07 01:05:49;;;;;;;9.10;2.20;;;21.00;89.80;;;;;;5020977;28;20029;-76
2024/04/07 01:08:16;;;;;;;5.45;2.03;;;20.90;89.80;;;;;;5019591;28;20041;-76
2024/04/07 01:10:43;;;;;;;7.90;2.47;;;20.90;90.00;;;;;;5016415;28;20032;-76
2024/04/07 01:13:09;;;;;;;5.38;2.33;;;20.90;90.00;;;;;;5043988;28;20958;-76
2024/04/07 01:15:36;;;;;;;8.05;1.50;;;20.70;89.90;;;;;;5029698;28;20044;-76
2024/04/07 01:18:03;;;;;;;7.38;1.90;;;20.60;90.00;;;;;;5037525;28;20029;-76
2024/04/07 01:20:30;;;;;;;3.92;1.70;;;20.60;89.50;;;;;;5040595;28;20084;-76
2024/04/07 01:22:57;;;;;;;2.85;1.23;;;20.50;89.60;;;;;;5026438;28;20440;-76
2024/04/07 01:25:23;;;;;;;3.33;1.25;;;20.40;89.70;;;;;;5009879;28;20099;-76
2024/04/07 01:27:55;;;;;;;2.50;1.05;;;20.30;89.90;;;;;;5011516;28;20072;-76
2024/04/07 01:30:21;;;;;;;8.80;1.25;;;20.20;90.00;;;;;;5011968;28;20564;-76
2024/04/07 01:32:47;;;;;;;4.75;0.98;;;20.10;90.10;;;;;;5023247;28;20025;-76
2024/04/07 01:35:13;;;;;;;3.95;1.30;;;20.00;90.00;;;;;;5013610;28;20486;-76
2024/04/07 01:37:38;;;;;;;2.50;1.38;;;19.90;90.20;;;;;;5012580;28;20540;-76
2024/04/07 01:40:05;;;;;;;4.30;0.85;;;19.80;90.10;;;;;;5012418;28;20037;-76
2024/04/07 01:42:30;;;;;;;10.80;1.80;;;19.80;90.20;;;;;;5030282;28;20713;-76
2024/04/07 01:44:56;;;;;;;4.25;0.88;;;19.60;90.10;;;;;;5041705;28;20044;-76
2024/04/07 01:47:22;;;;;;;3.33;1.05;;;19.60;90.30;;;;;;5047222;28;20499;-76
2024/04/07 01:49:49;;;;;;;3.08;1.17;;;19.50;90.20;;;;;;5051899;28;20033;-76
2024/04/07 01:52:15;;;;;;;13.05;1.90;;;19.40;90.30;;;;;;5049490;28;20436;-76
2024/04/07 01:54:41;;;;;;;2.03;1.23;;;19.40;90.50;;;;;;5026656;28;20066;-76
2024/04/07 01:57:07;;;;;;;7.85;2.20;;;19.40;90.80;;;;;;5021909;28;20704;-76
2024/04/07 01:59:32;;;;;;;3.13;1.48;;;19.40;90.60;;;;;;5027093;28;20041;-76
2024/04/07 02:01:58;;;;;;;2.80;1.20;;;19.30;90.50;;;;;;5026103;28;20033;-76
2024/04/07 02:04:26;;;;;;;3.67;1.50;;;19.10;90.90;;;;;;5029896;28;20044;-76
2024/04/07 02:06:52;;;;;;;3.78;1.42;;;19.00;91.10;;;;;;5026250;28;20128;-76
2024/04/07 02:09:18;;;;;;;3.83;1.25;;;18.80;91.60;;;;;;5036367;28;20410;-76
2024/04/07 02:11:44;;;;;;;1.52;0.98;;;18.80;92.00;;;;;;5030356;28;20476;-76
2024/04/07 02:14:09;;;;;;;1.35;0.70;;;18.80;92.10;;;;;;5024956;28;20049;-76
2024/04/07 02:16:35;;;;;;;3.53;1.02;;;18.80;92.20;;;;;;5023678;28;20037;-76
2024/04/07 02:19:01;;;;;;;1.05;0.70;;;18.90;92.30;;;;;;5022933;28;20025;-76
2024/04/07 02:21:27;;;;;;;1.30;0.77;;;18.90;92.40;;;;;;5044149;28;20057;-76
2024/04/07 02:23:52;;;;;;;1.33;0.80;;;18.80;92.50;;;;;;5033268;28;20455;-75
2024/04/07 02:26:18;;;;;;;10.77;0.80;;;18.80;92.40;;;;;;5031872;28;20022;-76
2024/04/07 02:28:43;;;;;;;2.90;0.95;;;18.90;92.30;;;;;;5025480;28;20567;-76
2024/04/07 02:31:09;;;;;;;3.78;1.05;;;18.80;92.30;;;;;;5022954;28;20040;-76
2024/04/07 02:33:36;;;;;;;1.58;1.10;;;18.80;92.10;;;;;;5044064;28;20036;-76
2024/04/07 02:36:01;;;;;;;1.00;0.70;;;18.70;92.20;;;;;;5033708;28;20086;-76
2024/04/07 02:38:27;;;;;;;3.38;1.33;;;18.70;92.30;;;;;;5032575;28;21085;-76
2024/04/07 02:40:53;;;;;;;4.30;1.17;;;18.70;92.20;;;;;;5031827;28;20130;-75
2024/04/07 02:43:18;;;;;;;6.00;0.85;;;18.70;92.10;;;;;;5046309;28;20044;-76
2024/04/07 02:48:28;;;;;;;1.52;1.23;;;18.50;91.80;;;;;;5016947;28;20022;-76
2024/04/07 02:50:56;;;;;;;0.98;0.73;;;18.40;91.90;;;;;;5025968;28;20381;-76
2024/04/07 02:53:22;;;;;;;1.17;0.80;;;18.40;92.00;;;;;;5024003;28;20058;-75
2024/04/07 02:55:48;;;;;;;2.72;1.05;;;18.30;92.10;;;;;;5023488;28;20124;-76
2024/04/07 02:58:13;;;;;;;3.88;0.63;;;18.40;92.40;;;;;;5031016;28;20035;-76
2024/04/07 03:00:39;;;;;;;3.80;1.23;;;18.30;92.40;;;;;;5029028;28;20033;-76
2024/04/07 03:03:04;;;;;;;1.15;0.90;;;18.30;92.30;;;;;;5024759;28;20100;-76
2024/04/07 03:05:30;;;;;;;1.23;0.80;;;18.30;92.30;;;;;;5041792;28;20040;-76
2024/04/07 03:07:56;;;;;;;3.83;0.47;;;18.30;92.40;;;;;;5035984;28;20036;-75
2024/04/07 03:10:21;;;;;;;0.20;0.20;;;18.30;92.60;;;;;;5037640;28;20045;-75
2024/04/07 03:12:47;;;;;;;1.90;0.98;;;18.30;92.60;;;;;;5037783;28;20053;-76
2024/04/07 03:15:13;;;;;;;5.13;0.77;;;18.30;92.30;;;;;;5021208;28;20047;-75
2024/04/07 03:17:39;;;;;;;3.45;1.00;;;18.40;92.50;;;;;;5039160;28;20058;-75
2024/04/07 03:20:05;;;;;;;0.75;0.47;;;18.30;92.40;;;;;;5021553;28;20104;-76
2024/04/07 03:22:31;;;;;;;2.42;0.60;;;18.30;92.50;;;;;;5026413;28;20030;-75
2024/04/07 03:24:57;;;;;;;0.55;0.50;;;18.30;92.50;;;;;;5023034;28;20390;-76
2024/04/07 03:27:23;;;;;;;3.47;0.50;;;18.30;92.40;;;;;;5049192;28;20033;-75
2024/04/07 03:29:48;;;;;;;0.60;0.60;;;18.30;92.30;;;;;;5031188;28;20378;-76
2024/04/07 03:32:14;;;;;;;0.38;0.20;;;18.30;92.10;;;;;;5022053;28;20036;-76
2024/04/07 03:34:41;;;;;;;5.45;0.88;;;18.30;92.10;;;;;;5023935;28;20037;-76
2024/04/07 03:37:06;;;;;;;0.50;0.50;;;18.30;92.30;;;;;;5020248;28;20033;-76
2024/04/07 03:39:33;;;;;;;1.60;0.55;;;18.30;92.40;;;;;;5023525;28;20033;-75
2024/04/07 03:42:02;;;;;;;3.00;0.30;;;18.20;92.40;;;;;;5009855;28;20029;-75
2024/04/07 03:44:29;;;;;;;1.10;0.30;;;18.20;92.60;;;;;;5013259;28;20033;-76
2024/04/07 03:46:57;;;;;;;0.50;0.50;;;18.20;92.60;;;;;;5026113;28;20017;-76
2024/04/07 03:49:24;;;;;;;2.20;0.80;;;18.20;92.80;;;;;;5034239;28;20044;-75
2024/04/07 03:51:49;;;;;;;1.15;0.63;;;18.20;92.80;;;;;;5042213;28;20044;-75
2024/04/07 03:54:15;;;;;;;0.85;0.30;;;18.10;92.90;;;;;;5018610;28;20033;-76
2024/04/07 03:56:40;;;;;;;1.83;0.57;;;18.10;93.00;;;;;;5026763;28;20092;-76
2024/04/07 03:59:06;;;;;;;0.32;0.32;;;18.10;92.90;;;;;;5017958;28;20025;-76
2024/04/07 04:01:32;;;;;;;2.67;0.75;;;18.10;93.00;;;;;;5030079;28;20041;-76
2024/04/07 04:03:58;;;;;;;1.45;0.90;;;18.10;93.00;;;;;;5032805;28;20025;-76
2024/04/07 04:06:24;;;;;;;0.88;0.43;;;18.10;93.00;;;;;;5024760;28;20037;-76
2024/04/07 04:08:50;;;;;;;2.67;0.43;;;18.10;93.00;;;;;;5013791;28;20036;-76
2024/04/07 04:11:16;;;;;;;0.73;0.60;;;18.10;93.00;;;;;;5032711;28;20033;-76
2024/04/07 04:13:43;;;;;;;1.08;0.73;;;18.10;93.00;;;;;;5031543;28;20496;-76
2024/04/07 04:16:08;;;;;;;1.10;0.50;;;18.10;93.00;;;;;;5023105;28;20046;-76
2024/04/07 04:18:34;;;;;;;1.75;0.65;;;18.00;93.00;;;;;;5014670;28;20025;-76
2024/04/07 04:21:00;;;;;;;0.40;0.20;;;18.00;93.00;;;;;;5016955;28;20025;-76
2024/04/07 04:23:25;;;;;;;1.40;0.52;;;18.00;93.10;;;;;;5020624;28;20030;-76
2024/04/07 04:25:55;;;;;;;1.13;0.85;;;18.00;93.10;;;;;;5016052;28;20038;-76
2024/04/07 04:28:21;;;;;;;0.43;0.40;;;17.90;93.20;;;;;;5023359;28;20045;-76
2024/04/07 04:31:00;;;;;;;0.90;0.73;;;17.90;93.10;;;;;;5033919;28;20074;-76
2024/04/07 04:33:27;;;;;;;0.55;0.52;;;17.90;93.20;;;;;;5009901;28;20409;-76
2024/04/07 04:35:52;;;;;;;1.98;0.50;;;17.90;93.20;;;;;;5008046;28;20866;-76
2024/04/07 04:38:18;;;;;;;0.55;0.40;;;17.80;93.20;;;;;;5008811;28;20030;-76
2024/04/07 04:40:53;;;;;;;1.10;0.82;;;17.80;93.30;;;;;;5008921;28;20044;-77
2024/04/07 04:43:19;;;;;;;2.67;0.68;;;17.80;93.30;;;;;;5008410;28;20486;-76
2024/04/07 04:45:49;;;;;;;0.93;0.55;;;17.80;93.30;;;;;;5009421;28;20033;-75
2024/04/07 04:48:15;;;;;;;0.43;0.40;;;17.80;93.50;;;;;;5036214;28;20457;-76
2024/04/07 04:50:50;;;;;;;0.32;0.32;;;17.80;93.40;;;;;;5021014;28;20041;-77
2024/04/07 04:53:16;;;;;;;1.00;0.43;;;17.80;93.40;;;;;;5010864;28;20065;-77
2024/04/07 04:55:42;;;;;;;0.90;0.43;;;17.90;93.40;;;;;;5009779;28;20478;-76
2024/04/07 04:58:07;;;;;;;2.40;1.00;;;17.80;93.50;;;;;;5024855;28;20057;-76
2024/04/07 05:00:33;;;;;;;4.45;0.93;;;17.80;93.40;;;;;;5023364;28;20064;-76
2024/04/07 05:02:58;;;;;;;0.52;0.45;;;17.90;93.40;;;;;;5028782;28;20131;-76
2024/04/07 05:05:26;;;;;;;1.85;0.73;;;17.90;93.40;;;;;;5026617;28;20135;-76
2024/04/07 05:07:52;;;;;;;2.40;1.10;;;17.90;93.40;;;;;;5027573;28;20099;-76
2024/04/07 05:10:18;;;;;;;4.82;0.70;;;17.90;93.40;;;;;;5023817;28;20831;-76
2024/04/07 05:12:44;;;;;;;2.47;0.40;;;17.80;93.40;;;;;;5018217;28;20480;-76
2024/04/07 05:15:09;;;;;;;2.03;0.75;;;17.80;93.40;;;;;;5013201;28;20072;-77
2024/04/07 05:17:35;;;;;;;1.15;0.65;;;17.70;93.50;;;;;;5017242;28;20036;-76
2024/04/07 05:20:01;;;;;;;7.85;0.75;;;17.70;93.60;;;;;;5029648;28;20060;-77
2024/04/07 05:22:27;;;;;;;2.30;0.95;;;17.70;93.80;;;;;;5034525;28;20036;-77
2024/04/07 05:24:52;;;;;;;0.45;0.45;;;17.60;93.60;;;;;;5023070;28;20029;-77
2024/04/07 05:27:18;;;;;;;5.03;1.00;;;17.70;93.70;;;;;;5024493;28;20029;-77
2024/04/07 05:29:48;;;;;;;0.20;0.20;;;17.70;93.70;;;;;;5037290;28;20079;-77
2024/04/07 05:32:13;;;;;;;0.20;0.20;;;17.60;93.70;;;;;;5046331;28;20432;-77
2024/04/07 05:34:39;;;;;;;1.88;0.85;;;17.60;93.70;;;;;;5043462;28;20049;-76
2024/04/07 05:37:06;;;;;;;3.58;1.10;;;17.60;93.80;;;;;;5043155;28;20029;-77
2024/04/07 05:39:32;;;;;;;2.35;1.10;;;17.60;93.80;;;;;;5030844;28;20491;-77
2024/04/07 05:41:59;;;;;;;1.73;0.93;;;17.60;93.80;;;;;;5027463;28;20531;-77
2024/04/07 05:44:25;;;;;;;3.35;0.85;;;17.60;93.70;;;;;;5007532;28;20041;-76
2024/04/07 05:46:51;;;;;;;0.47;0.47;;;17.60;93.70;;;;;;5029894;28;20021;-76
2024/04/07 05:49:17;;;;;;;5.28;1.40;;;17.60;93.70;;;;;;5034189;28;20060;-77
2024/04/07 05:51:42;;;;;;;0.20;0.20;;;17.60;93.80;;;;;;5022418;28;20464;-77
2024/04/07 05:54:08;;;;;;;4.85;1.10;;;17.60;93.70;;;;;;5026363;28;20053;-77
2024/04/07 05:56:34;;;;;;;0.95;0.30;;;17.60;93.80;;;;;;5021974;28;20026;-77
2024/04/07 05:59:02;;;;;;;1.08;0.63;;;17.50;93.70;;;;;;5025802;28;20033;-79
2024/04/07 06:01:28;;;;;;;1.60;0.77;;;17.50;93.80;;;;;;5026317;28;20112;-77
2024/04/07 06:03:53;;;;;;;1.27;0.68;;;17.50;93.80;;;;;;5035568;28;20038;-78
2024/04/07 06:06:19;;;;;;;2.28;0.50;;;17.40;93.80;;;;;;5025027;28;20087;-77
2024/04/07 06:08:45;;;;;;;1.05;0.65;;;17.40;93.70;;;;;;5016811;28;20038;-77
2024/04/07 06:11:10;;;;;;;0.15;0.15;;;17.40;93.80;;;;;;5021222;28;20113;-78
2024/04/07 06:13:36;;;;;;;0.77;0.47;;;17.30;93.80;;;;;;5029631;28;20420;-77
2024/04/07 06:16:02;;;;;;;2.70;0.60;;;17.30;93.80;;;;;;5018032;28;20104;-78
2024/04/07 06:18:27;;;;;;;0.20;0.20;;;17.30;93.90;;;;;;5013138;28;20030;-76
2024/04/07 06:20:57;;;;;;;0.38;0.38;;;17.30;93.90;;;;;;5018786;28;20060;-76
2024/04/07 06:23:23;;;;;;;1.55;0.60;;;17.30;94.00;;;;;;5014915;28;20033;-77
2024/04/07 06:25:50;;;;;;;1.02;0.80;;;17.20;93.90;;;;;;5030761;28;20033;-76
2024/04/07 06:28:15;;;;;;;1.30;0.43;;;17.30;93.80;;;;;;5030355;28;20025;-77
2024/04/07 06:30:41;;;;;;;0.73;0.65;;;17.30;93.80;;;;;;5030917;28;20037;-76
2024/04/07 06:33:06;;;;;;;1.80;0.65;;;17.20;93.80;;;;;;5049118;28;20037;-76
2024/04/07 06:35:32;;;;;;;3.72;0.98;;;17.20;93.90;;;;;;5042153;28;20136;-74
2024/04/07 06:37:58;;;;;;;0.88;0.82;;;17.20;93.90;;;;;;5029161;28;20040;-75
2024/04/07 06:40:24;;;;;;;4.28;3.13;;;17.20;94.00;;;;;;5028801;28;20038;-74
2024/04/07 06:42:50;;;;;;;0.40;0.40;;;17.20;93.90;;;;;;5033075;28;20028;-79
2024/04/07 06:45:15;;;;;;;0.47;0.47;;;17.20;93.90;;;;;;5017038;28;20040;-76
2024/04/07 06:47:41;;;;;;;0.35;0.35;;;17.20;93.90;;;;;;5027353;28;20410;-76
2024/04/07 06:50:06;;;;;;;0.95;0.50;;;17.10;93.90;;;;;;5011028;28;20030;-76
2024/04/07 06:52:32;;;;;;;2.92;0.52;;;17.20;93.90;;;;;;5025073;28;20489;-76
2024/04/07 06:54:58;;;;;;;0.85;0.75;;;17.10;93.90;;;;;;5023116;28;20074;-77
2024/04/07 06:57:24;;;;;;;1.05;0.60;;;17.20;93.90;;;;;;5015806;28;20057;-77
2024/04/07 06:59:51;;;;;;;1.83;0.88;;;17.20;94.00;;;;;;5024152;28;20069;-75
2024/04/07 07:02:18;;;;;;;0.60;0.55;;;17.20;94.00;;;;;;5012253;28;20583;-76
2024/04/07 07:04:44;;;;;;;0.38;0.38;;;17.10;94.10;;;;;;5015815;28;20065;-75
2024/04/07 07:07:09;;;;;;;0.70;0.70;;;17.20;94.20;;;;;;5028563;28;20061;-75
2024/04/07 07:09:35;;;;;;;2.78;0.60;;;17.20;94.20;;;;;;5011502;28;20034;-75
2024/04/07 07:12:01;;;;;;;2.95;1.08;;;17.20;94.30;;;;;;5024440;28;20044;-75
2024/04/07 07:14:27;;;;;;;2.17;1.02;;;17.20;94.30;;;;;;5022429;28;20040;-82
2024/04/07 07:16:52;;;;;;;0.82;0.75;;;17.20;94.40;;;;;;5022138;28;20477;-72
2024/04/07 07:19:21;;;;;;;6.57;1.00;;;17.20;94.30;;;;;;5034285;28;20079;-75
2024/04/07 07:21:46;;;;;;;2.53;0.88;;;17.10;94.30;;;;;;5024417;28;20743;-75
2024/04/07 07:24:12;;;;;;;1.50;0.60;;;17.20;94.40;;;;;;5022476;28;20129;-75
2024/04/07 07:26:37;;;;;;;5.15;0.73;;;17.10;94.50;;;;;;5014370;28;20037;-76
2024/04/07 07:29:03;;;;;;;0.70;0.65;;;17.10;94.60;;;;;;5023833;28;20087;-75
2024/04/07 07:31:30;;;;;;;14.48;0.82;;;17.10;94.70;;;;;;5026013;28;20037;-76
2024/04/07 07:33:55;;;;;;;0.75;0.50;;;17.10;94.70;;;;;;5026596;28;20025;-76
2024/04/07 07:36:22;;;;;;;3.72;0.88;;;17.10;94.70;;;;;;5012975;28;20040;-76
2024/04/07 07:38:47;;;;;;;2.97;1.10;;;17.10;94.80;;;;;;5036144;28;20037;-76
2024/04/07 07:41:18;;;;;;;4.68;1.27;;;17.10;94.80;;;;;;5021838;28;20038;-77
2024/04/07 07:43:46;;;;;;;5.88;1.30;;;17.10;94.80;;;;;;5022167;28;20026;-76
2024/04/07 07:46:12;;;;;;;1.00;0.73;;;17.10;94.80;;;;;;5010131;28;20850;-76
2024/04/07 07:48:39;;;;;;;3.55;0.85;;;17.10;94.90;;;;;;5036536;28;20578;-77
2024/04/07 07:51:12;;;;;;;1.30;0.65;;;17.10;94.80;;;;;;5015849;28;20370;-77
2024/04/07 07:53:38;;;;;;;2.28;1.05;;;17.10;95.20;;;;;;5019078;28;20152;-76
2024/04/07 07:56:05;;;;;;;3.05;1.20;;;17.10;94.90;;;;;;5011371;28;20096;-76
2024/04/07 07:58:41;;;;;;;3.15;1.35;;;17.20;95.10;;;;;;5018878;28;20029;-77
2024/04/07 08:01:10;;;;;;;1.00;0.70;;;17.20;94.90;;;;;;5040524;28;20033;-76
2024/04/07 08:03:35;;;;;;;1.67;0.85;;;17.20;94.80;;;;;;5017777;28;20588;-77
2024/04/07 08:06:01;;;;;;;5.35;1.27;;;17.20;94.90;;;;;;5025707;28;20025;-77
2024/04/07 08:08:27;;;;;;;1.50;0.60;;;17.20;94.60;;;;;;5021641;28;20084;-77
2024/04/07 08:10:53;;;;;;;2.03;1.02;;;17.20;94.40;;;;;;5017621;28;20025;-77
2024/04/07 08:13:19;;;;;;;4.10;0.90;;;17.30;94.60;;;;;;5035005;28;20029;-77
2024/04/07 08:15:45;;;;;;;3.92;0.95;;;17.30;94.60;;;;;;5032877;28;20045;-77
2024/04/07 08:18:13;;;;;;;0.75;0.75;;;17.30;94.40;;;;;;5025071;28;20116;-77
2024/04/07 08:20:40;;;;;;;3.67;1.10;;;17.30;94.50;;;;;;5023822;28;20033;-77
2024/04/07 08:23:05;;;;;;;3.10;1.13;;;17.30;94.50;;;;;;5026247;28;20018;-77
2024/04/07 08:25:33;;;;;;;1.50;0.88;;;17.30;94.30;;;;;;5029346;28;20489;-77
2024/04/07 08:27:58;;;;;;;2.50;1.25;;;17.30;94.40;;;;;;5029660;28;20037;-76
2024/04/07 08:30:24;;;;;;;6.05;1.45;;;17.40;94.30;;;;;;5039172;28;20060;-77
2024/04/07 08:32:50;;;;;;;6.82;1.08;;;17.30;94.20;;;;;;5010302;28;20100;-77
2024/04/07 08:35:15;;;;;;;1.70;1.20;;;17.40;94.30;;;;;;5017886;28;20042;-76
2024/04/07 08:37:41;;;;;;;1.92;1.40;;;17.30;94.60;;;;;;5016339;28;20037;-77
2024/04/07 08:40:07;;;;;;;3.75;1.30;;;17.40;94.50;;;;;;5009915;28;20249;-77
2024/04/07 08:42:33;;;;;;;5.32;1.75;;;17.40;94.20;;;;;;5021191;28;20852;-77
2024/04/07 08:45:01;;;;;;;3.67;1.48;;;17.50;94.00;;;;;;5029671;28;20196;-77
2024/04/07 08:47:28;;;;;;;2.72;1.38;;;17.40;93.70;;;;;;5033142;28;20035;-77
2024/04/07 08:49:55;;;;;;;5.03;2.25;;;17.40;94.10;;;;;;5025767;28;20032;-77
2024/04/07 08:52:22;;;;;;;4.28;1.40;;;17.40;94.20;;;;;;5021496;28;20072;-77
2024/04/07 08:54:50;;;;;;;3.60;1.55;;;17.40;93.70;;;;;;5013188;28;20139;-77
2024/04/07 08:57:16;;;;;;;3.63;1.27;;;17.40;93.60;;;;;;5038835;28;20039;-77
2024/04/07 08:59:46;;;;;;;2.13;1.27;;;17.40;93.60;;;;;;5034672;28;20125;-77
2024/04/07 09:02:14;;;;;;;5.55;1.77;;;17.40;93.80;;;;;;5014435;28;20037;-77
2024/04/07 09:04:40;;;;;;;4.88;1.73;;;17.50;93.80;;;;;;5033843;28;20164;-77
2024/04/07 09:07:05;;;;;;;5.88;1.63;;;17.40;93.50;;;;;;5032800;28;20579;-77
2024/04/07 09:09:31;;;;;;;1.55;0.93;;;17.50;94.00;;;;;;5039281;28;20033;-77
2024/04/07 09:11:59;;;;;;;3.58;0.93;;;17.60;94.20;;;;;;5020858;28;20031;-77
2024/04/07 09:14:26;;;;;;;3.42;1.38;;;17.60;94.00;;;;;;5032834;28;20045;-77
2024/04/07 09:17:08;;;;;;;2.58;1.17;;;17.70;93.70;;;;;;5020594;28;20033;-77
2024/04/07 09:19:38;;;;;;;1.55;0.77;;;17.60;93.60;;;;;;5026175;28;20029;-77
2024/04/07 09:22:05;;;;;;;1.88;1.20;;;17.70;93.70;;;;;;5025814;28;20049;-77
2024/04/07 09:24:32;;;;;;;5.68;1.40;;;17.70;93.70;;;;;;5027269;28;20037;-77
2024/04/07 09:27:04;;;;;;;1.17;0.90;;;17.70;93.40;;;;;;5012984;28;20441;-77
2024/04/07 09:29:31;;;;;;;4.10;1.13;;;17.80;93.50;;;;;;5029945;28;20083;-77
2024/04/07 09:32:00;;;;;;;1.77;0.95;;;17.80;93.40;;;;;;5027207;28;20046;-77
2024/04/07 09:34:32;;;;;;;2.42;1.13;;;17.80;93.00;;;;;;5022552;28;20480;-77
2024/04/07 09:36:59;;;;;;;8.00;1.58;;;17.80;92.80;;;;;;5022889;28;20041;-77
2024/04/07 09:39:26;;;;;;;4.35;1.13;;;17.70;92.60;;;;;;5013890;28;20533;-77
2024/04/07 09:41:53;;;;;;;2.97;1.08;;;17.70;92.60;;;;;;5018787;28;20057;-77
2024/04/07 09:44:20;;;;;;;2.03;1.15;;;17.70;92.50;;;;;;5012596;28;20045;-76
2024/04/07 09:46:46;;;;;;;3.00;1.08;;;17.70;92.80;;;;;;5032384;28;20025;-77
2024/04/07 09:49:12;;;;;;;2.38;0.95;;;17.80;92.60;;;;;;5024742;28;20385;-76
2024/04/07 09:52:01;;;;;;;5.88;1.30;;;17.80;92.20;;;;;;5028388;28;20044;-77
2024/04/07 09:54:44;;;;;;;1.90;0.90;;;17.80;91.60;;;;;;5028675;28;20045;-76
2024/04/07 09:57:13;;;;;;;3.63;1.27;;;17.80;91.70;;;;;;5030019;28;20057;-76
2024/04/07 09:59:42;;;;;;;1.17;0.70;;;17.80;92.10;;;;;;5039309;28;20056;-77
2024/04/07 10:02:09;;;;;;;2.55;1.10;;;17.90;92.30;;;;;;5028123;28;20080;-77
2024/04/07 10:04:37;;;;;;;4.72;1.25;;;17.90;92.20;;;;;;5025618;28;20029;-77
2024/04/07 10:07:03;;;;;;;2.88;1.27;;;17.90;92.20;;;;;;5030658;28;20030;-76
2024/04/07 10:09:30;;;;;;;2.90;1.02;;;17.90;92.30;;;;;;5033791;28;20036;-77
2024/04/07 10:11:56;;;;;;;4.68;1.23;;;18.00;92.50;;;;;;5036470;28;20095;-76
2024/04/07 10:14:22;;;;;;;2.13;0.90;;;18.00;91.90;;;;;;5035350;28;20045;-78
2024/04/07 10:16:50;;;;;;;5.25;1.17;;;18.10;91.50;;;;;;5028004;28;20044;-77
2024/04/07 10:19:18;;;;;;;2.83;1.10;;;18.10;91.00;;;;;;5026656;28;20092;-77
2024/04/07 10:21:44;;;;;;;2.67;0.88;;;18.10;91.00;;;;;;5032356;28;20490;-77
2024/04/07 10:24:10;;;;;;;2.45;1.05;;;18.20;91.20;;;;;;5036204;28;20098;-76
2024/04/07 10:26:36;;;;;;;2.40;1.38;;;18.20;91.40;;;;;;5037666;28;20030;-76
2024/04/07 10:29:07;;;;;;;0.82;0.70;;;18.30;91.40;;;;;;5039147;28;20033;-77
2024/04/07 10:31:34;;;;;;;4.72;1.35;;;18.40;91.50;;;;;;5040280;28;20484;-77
2024/04/07 10:34:01;;;;;;;1.48;0.93;;;18.40;91.50;;;;;;5029658;28;20029;-77
2024/04/07 10:36:27;;;;;;;4.55;0.93;;;18.50;91.40;;;;;;5027160;28;20045;-77
2024/04/07 10:38:57;;;;;;;2.35;0.90;;;18.50;91.10;;;;;;5020637;28;20025;-76
2024/04/07 10:41:28;;;;;;;1.42;0.70;;;18.50;91.30;;;;;;5028915;28;20036;-77
2024/04/07 10:43:54;;;;;;;5.32;1.15;;;18.50;91.40;;;;;;5024744;28;20757;-77
2024/04/07 10:46:21;;;;;;;0.40;0.40;;;18.50;91.20;;;;;;5021522;28;20056;-77
2024/04/07 10:48:48;;;;;;;5.38;1.20;;;18.60;91.20;;;;;;5025295;28;20049;-78
2024/04/07 10:51:15;;;;;;;2.30;0.73;;;18.70;91.50;;;;;;5028915;28;20137;-77
2024/04/07 10:53:45;;;;;;;1.80;0.80;;;18.70;91.50;;;;;;5032225;28;20053;-77
2024/04/07 10:56:11;;;;;;;0.43;0.43;;;18.70;91.60;;;;;;5025617;28;20148;-77
2024/04/07 10:58:38;;;;;;;1.80;1.00;;;18.80;91.50;;;;;;5023301;28;20026;-77
2024/04/07 11:01:06;;;;;;;4.05;0.98;;;18.80;91.70;;;;;;5019004;28;20085;-77
2024/04/07 11:03:36;;;;;;;2.40;1.13;;;18.90;91.70;;;;;;5025415;28;20072;-77
2024/04/07 11:06:03;;;;;;;1.20;0.73;;;18.90;91.90;;;;;;5028860;28;20044;-77
2024/04/07 11:08:29;;;;;;;2.80;0.82;;;18.90;91.40;;;;;;5028426;28;20064;-76
2024/04/07 11:10:55;;;;;;;2.92;1.02;;;19.00;91.10;;;;;;5027955;28;20025;-77
2024/04/07 11:13:23;;;;;;;1.67;0.77;;;18.90;90.80;;;;;;5027191;28;20034;-77
2024/04/07 11:15:50;;;;;;;2.33;0.95;;;19.00;90.90;;;;;;5015816;28;20037;-77
2024/04/07 11:18:19;;;;;;;2.60;0.80;;;19.00;91.10;;;;;;5025194;28;20032;-77
2024/04/07 11:20:45;;;;;;;2.85;1.02;;;19.00;90.60;;;;;;5016003;28;20060;-77
2024/04/07 11:23:12;;;;;;;1.30;0.95;;;19.00;90.60;;;;;;5013129;28;20505;-77
2024/04/07 11:25:40;;;;;;;6.63;1.27;;;18.90;90.20;;;;;;5013902;28;20353;-76
2024/04/07 11:28:08;;;;;;;1.98;1.10;;;19.00;90.20;;;;;;5009036;28;20072;-79
2024/04/07 11:30:39;;;;;;;2.33;1.13;;;19.00;90.10;;;;;;5010015;28;20034;-78
2024/04/07 11:33:09;;;;;;;2.60;0.95;;;19.00;90.40;;;;;;5017862;28;20021;-80
2024/04/07 11:35:36;;;;;;;2.28;1.05;;;19.00;90.30;;;;;;5023518;28;20069;-78
2024/04/07 11:38:05;;;;;;;1.55;0.85;;;19.10;90.70;;;;;;5019213;28;20432;-78
2024/04/07 11:40:31;;;;;;;2.45;1.05;;;19.10;90.90;;;;;;5028511;28;20060;-74
2024/04/07 11:42:57;;;;;;;2.13;0.85;;;19.10;90.20;;;;;;5019022;28;20025;-75
2024/04/07 11:45:24;;;;;;;1.80;0.68;;;19.10;90.00;;;;;;5020821;28;20135;-76
2024/04/07 11:47:51;;;;;;;5.20;0.90;;;19.10;89.40;;;;;;5017702;28;20109;-73
2024/04/07 11:50:17;;;;;;;2.38;0.75;;;19.10;89.00;;;;;;5025257;28;20033;-76
2024/04/07 11:52:42;;;;;;;4.38;1.08;;;19.20;89.00;;;;;;5017431;28;20485;-76
2024/04/07 11:55:08;;;;;;;3.85;1.05;;;19.20;87.60;;;;;;5025684;28;20124;-76
2024/04/07 11:57:34;;;;;;;2.55;0.98;;;19.30;88.30;;;;;;5028742;28;20099;-75
2024/04/07 12:00:00;;;;;;;1.33;0.95;;;19.30;86.50;;;;;;5023545;28;20495;-75
2024/04/07 12:02:26;;;;;;;2.78;0.95;;;19.20;86.40;;;;;;5017180;28;20071;-75
2024/04/07 12:04:52;;;;;;;0.65;0.55;;;19.30;86.60;;;;;;5018851;28;20037;-75
2024/04/07 12:07:17;;;;;;;1.95;0.65;;;19.40;87.20;;;;;;5023094;28;20021;-75
2024/04/07 12:09:43;;;;;;;5.93;1.10;;;19.40;86.90;;;;;;5026328;28;20037;-76
2024/04/07 12:12:09;;;;;;;2.35;1.45;;;19.50;87.00;;;;;;5024756;28;20029;-74
2024/04/07 12:14:35;;;;;;;1.42;0.80;;;19.50;87.10;;;;;;5011347;28;20026;-74
2024/04/07 12:17:01;;;;;;;2.72;0.98;;;19.60;87.60;;;;;;5019232;28;20079;-74
2024/04/07 12:19:27;;;;;;;4.35;0.90;;;19.60;86.30;;;;;;5023095;28;20033;-74
2024/04/07 12:21:53;;;;;;;0.50;0.47;;;19.70;86.30;;;;;;5014443;28;20033;-75
2024/04/07 12:24:18;;;;;;;2.30;0.88;;;19.70;86.80;;;;;;5011372;28;20520;-76
2024/04/07 12:26:46;;;;;;;5.07;1.05;;;19.80;87.50;;;;;;5018449;28;20071;-73
2024/04/07 12:29:12;;;;;;;2.85;0.95;;;19.80;87.70;;;;;;5029550;28;20130;-73
2024/04/07 12:31:38;;;;;;;4.47;1.02;;;19.90;85.50;;;;;;5027920;28;20052;-74
2024/04/07 12:34:05;;;;;;;5.38;1.17;;;19.80;85.40;;;;;;5015341;28;20397;-74
2024/04/07 12:36:32;;;;;;;0.98;0.70;;;19.80;86.00;;;;;;5023132;28;20103;-74
2024/04/07 12:39:04;;;;;;;4.05;0.95;;;19.90;86.70;;;;;;5018893;28;20041;-75
2024/04/07 12:41:31;;;;;;;0.38;0.38;;;19.90;86.50;;;;;;5033111;28;20037;-74
2024/04/07 12:43:57;;;;;;;3.22;1.10;;;20.00;86.50;;;;;;5017775;28;20018;-73